Detalii statie AGROKAISER STANESTI [0000198D]

Toti senzorii

Date Temperatura solului [C]Precipitatii [mm]Voltaj baterie [mV]Leaf Wetness [Min]HC Air temperature [C]HC Relative humidity [%]Punctul de roua [C]
medieminmaxsumaultimatimpmedieminmaxmediemediemin
2017-06-25 06:00:00 0 6854 18.84 17.91 19.97 100 18.8 17.9
2017-06-25 07:00:00 0 7236 21.59 20.26 23.4 99.17 21.4 20.2
2017-06-25 08:00:00 0 7264 25.73 23.99 27.44 83.43 22.5 22.1
2017-06-25 09:00:00 0 7264 27.8 27.07 28.57 76.84 23.2 22.7
2017-06-25 10:00:00 0 7254 30.02 28.57 31.07 70.07 23.7 22.7
2017-06-25 11:00:00 0 7254 32.07 31.01 32.9 64.03 24.2 23.7
2017-06-25 12:00:00 0 7226 33.24 32.34 34.26 60.79 24.4 23.5
2017-06-25 13:00:00 0 7236 33.01 32.48 33.81 56.28 22.9 21.9
2017-06-25 14:00:00 0 7236 32.01 31.42 32.69 55.07 21.6 20.4
2017-06-25 15:00:00 0 7060 32.33 32.06 32.71 53.08 21.4 20.9
2017-06-25 16:00:00 0 6962 32.37 32.05 32.48 50.31 20.5 19.9
2017-06-25 17:00:00 0 7108 31.81 31.6 31.94 50.43 20 18.7
2017-06-25 18:00:00 0 7060 31.69 31.19 32.1 51.29 20.2 19.7
2017-06-25 19:00:00 0 6874 30.83 30.29 31.25 55.8 20.7 19
2017-06-25 20:00:00 0 6826 28.63 27.22 29.89 64.74 21.2 20.3
2017-06-25 21:00:00 0 6826 25.82 24.83 27.04 69.8 19.7 19.2
2017-06-25 22:00:00 0 6826 23.71 22.49 24.58 75.25 18.8 18.3
2017-06-25 23:00:00 0 6816 21.88 21.27 22.51 88.88 19.7 18.9
2017-06-26 00:00:00 0 6826 22.57 21.81 23.23 93.84 21.4 20.1
2017-06-26 01:00:00 0 6816 22.5 22.05 22.94 99.64 22.3 22
2017-06-26 02:00:00 0 6806 21.31 20.89 21.93 100 21.2 20.8
2017-06-26 03:00:00 0 6816 20.55 20.42 20.77 100 20.5 20.4
2017-06-26 04:00:00 0 6816 20.41 20.13 20.62 100 20.3 20.1
2017-06-26 05:00:00 0 6806 19.24 18.77 20.06 100 19.1 18.7
2017-06-26 06:00:00 0 6854 19.88 18.76 21.28 100 19.8 18.7
2017-06-26 07:00:00 0 7246 22.98 21.4 24.74 97.07 22.4 21.4
2017-06-26 08:00:00 0 7264 27.06 25.2 28.59 82.45 23.6 23.4
2017-06-26 09:00:00 0 7254 30.35 28.81 31.71 69.15 23.9 23.4
2017-06-26 10:00:00 0 7254 32.07 30.8 33.7 65.21 24.5 23.5
2017-06-26 11:00:00 0 7246 33.25 32.13 34.15 63.94 25.3 24.6
2017-06-26 12:00:00 0 7226 33.99 32.55 35.42 62.74 25.7 25
2017-06-26 13:00:00 0 7098 34.89 33.59 35.8 58.77 25.4 24.5
2017-06-26 14:00:00 0 7080 33.01 32.25 34.02 61.63 24.4 23.7
2017-06-26 15:00:00 0 7236 33.29 32.8 33.77 59.26 24 23.5
2017-06-26 16:00:00 0 7070 33.75 33.08 34.37 57.7 24 23.5
2017-06-26 17:00:00 0 7226 33.41 32.67 34.01 58.17 23.8 23.1
2017-06-26 18:00:00 0 7206 32.54 32.05 33.09 61.74 24 22.8